createdAt,value
2019-05-02T00:00:14.370Z,32.50
2019-05-02T00:01:38.240Z,35.17
2019-05-02T00:02:42.389Z,34.30
2019-05-02T00:03:46.201Z,35.10
2019-05-02T00:04:50.966Z,35.30
2019-05-02T00:05:55.099Z,32.55
2019-05-02T00:07:06.375Z,34.88
2019-05-02T00:08:10.505Z,35.68
2019-05-02T00:09:14.514Z,35.40
2019-05-02T00:10:19.993Z,34.65
2019-05-02T00:11:24.510Z,34.43
2019-05-02T00:12:28.362Z,33.53
2019-05-02T00:13:31.942Z,38.20
2019-05-02T00:14:36.243Z,34.95
2019-05-02T00:15:39.847Z,36.75
2019-05-02T00:16:45.041Z,36.42
2019-05-02T00:17:49.126Z,33.45
2019-05-02T00:18:52.650Z,34.48
2019-05-02T00:19:56.234Z,36.95
2019-05-02T00:21:01.324Z,36.50
2019-05-02T00:22:06.654Z,37.42
2019-05-02T00:23:10.217Z,36.65
2019-05-02T00:24:13.789Z,35.98
2019-05-02T00:25:17.395Z,35.50
2019-05-02T00:26:24.581Z,34.88
2019-05-02T00:27:26.256Z,37.20
2019-05-02T00:28:29.898Z,34.83
2019-05-02T00:29:33.529Z,36.42
2019-05-02T00:30:37.139Z,36.50
2019-05-02T00:31:41.955Z,36.85
2019-05-02T00:32:45.933Z,35.25
2019-05-02T00:33:49.612Z,36.23
2019-05-02T00:34:53.179Z,35.90
2019-05-02T00:35:56.775Z,36.15
2019-05-02T00:37:00.426Z,36.28
2019-05-02T00:38:04.096Z,39.25
2019-05-02T00:39:09.564Z,37.23
2019-05-02T00:40:13.694Z,39.58
2019-05-02T00:41:17.258Z,40.00
2019-05-02T00:42:22.512Z,38.70
2019-05-02T00:43:29.067Z,38.83
2019-05-02T00:44:31.251Z,36.63
2019-05-02T00:45:34.864Z,39.75
2019-05-02T00:46:38.430Z,37.93
2019-05-02T00:47:47.761Z,37.00
2019-05-02T00:48:58.980Z,37.28
2019-05-02T00:49:58.650Z,37.53
2019-05-02T00:51:02.226Z,39.92
2019-05-02T00:52:05.963Z,35.60
2019-05-02T00:53:12.141Z,36.80
2019-05-02T00:54:19.300Z,35.20
2019-05-02T00:55:20.081Z,35.90
2019-05-02T00:56:23.640Z,35.20
2019-05-02T00:57:27.208Z,35.95
2019-05-02T00:58:31.889Z,35.15
2019-05-02T00:59:37.828Z,34.03
2019-05-02T01:00:42.973Z,35.35
2019-05-02T01:01:50.879Z,32.80
2019-05-02T01:02:59.044Z,35.45
2019-05-02T01:04:23.323Z,34.45
2019-05-02T01:05:24.882Z,34.27
2019-05-02T01:06:28.457Z,34.43
2019-05-02T01:07:32.034Z,33.28
2019-05-02T01:08:36.844Z,32.80
2019-05-02T01:09:42.137Z,33.18
2019-05-02T01:10:45.785Z,33.75
2019-05-02T01:11:49.430Z,33.20
2019-05-02T01:12:52.995Z,32.30
2019-05-02T01:13:57.716Z,35.68
2019-05-02T01:15:03.230Z,35.08
2019-05-02T01:16:06.779Z,32.73
2019-05-02T01:17:10.350Z,34.08
2019-05-02T01:18:13.922Z,35.10
2019-05-02T01:19:17.590Z,32.88
2019-05-02T01:20:22.327Z,33.13
2019-05-02T01:21:26.456Z,33.85
2019-05-02T01:22:30.089Z,32.00
2019-05-02T01:23:33.668Z,33.63
2019-05-02T01:24:39.913Z,34.27
2019-05-02T01:25:42.471Z,33.67
2019-05-02T01:26:53.698Z,32.03
2019-05-02T01:28:17.953Z,34.63
2019-05-02T01:29:24.882Z,34.40
2019-05-02T01:30:47.095Z,33.05
2019-05-02T01:31:58.083Z,34.98
2019-05-02T01:33:06.522Z,35.00
2019-05-02T01:34:17.964Z,35.75
2019-05-02T01:35:31.611Z,35.73
2019-05-02T01:36:44.889Z,35.75
2019-05-02T01:38:06.390Z,35.17
2019-05-02T01:39:11.634Z,35.17
2019-05-02T01:40:17.782Z,37.33
2019-05-02T01:41:24.031Z,36.45
2019-05-02T01:42:38.733Z,37.38
2019-05-02T01:43:32.023Z,34.48
2019-05-02T01:44:36.566Z,37.45
2019-05-02T01:45:41.853Z,37.73
2019-05-02T01:46:45.566Z,37.58
2019-05-02T01:47:49.168Z,38.48
2019-05-02T01:48:52.788Z,38.67
2019-05-02T01:49:57.232Z,38.15
2019-05-02T01:51:04.336Z,36.65
2019-05-02T01:52:06.777Z,37.13
2019-05-02T01:53:10.346Z,36.75
2019-05-02T01:54:13.974Z,35.65
2019-05-02T01:55:21.266Z,36.42
2019-05-02T01:56:22.767Z,36.80
2019-05-02T01:57:26.335Z,34.83
2019-05-02T01:58:29.897Z,35.55
2019-05-02T01:59:33.839Z,38.15
2019-05-02T02:00:40.831Z,36.38
2019-05-02T02:01:44.054Z,36.60
2019-05-02T02:02:47.617Z,35.98
2019-05-02T02:03:51.266Z,39.38
2019-05-02T02:04:56.891Z,37.20
2019-05-02T02:06:02.844Z,36.70
2019-05-02T02:07:05.634Z,36.40
2019-05-02T02:08:09.275Z,35.98
2019-05-02T02:09:12.909Z,36.05
2019-05-02T02:10:19.754Z,36.38
2019-05-02T02:11:21.442Z,36.70
2019-05-02T02:12:25.011Z,38.63
2019-05-02T02:13:31.202Z,37.65
2019-05-02T02:14:33.798Z,35.98
2019-05-02T02:15:37.407Z,36.83
2019-05-02T02:16:41.115Z,37.65
2019-05-02T02:17:46.794Z,36.85
2019-05-02T02:18:51.568Z,37.48
2019-05-02T02:19:59.713Z,37.63
2019-05-02T02:21:07.723Z,36.03
2019-05-02T02:22:19.253Z,38.17
2019-05-02T02:23:45.058Z,36.03
2019-05-02T02:24:49.990Z,35.90
2019-05-02T02:25:55.204Z,36.30
2019-05-02T02:26:58.773Z,36.60
2019-05-02T02:28:02.410Z,37.23
2019-05-02T02:29:07.898Z,37.05
2019-05-02T02:30:17.762Z,38.28
2019-05-02T02:31:20.437Z,36.85
2019-05-02T02:32:27.114Z,36.65
2019-05-02T02:33:29.286Z,38.60
2019-05-02T02:34:32.859Z,37.40
2019-05-02T02:35:36.428Z,37.58
2019-05-02T02:36:39.987Z,36.55
2019-05-02T02:37:51.984Z,38.78
2019-05-02T02:38:48.843Z,37.23
2019-05-02T02:39:54.264Z,35.70
2019-05-02T02:40:57.620Z,37.15
2019-05-02T02:42:01.172Z,38.00
2019-05-02T02:43:30.342Z,37.00
2019-05-02T02:44:17.489Z,39.23
2019-05-02T02:45:57.804Z,37.00
2019-05-02T02:47:01.940Z,34.90
2019-05-02T02:48:05.574Z,37.25
2019-05-02T02:49:14.205Z,40.40
2019-05-02T02:50:14.459Z,36.20
2019-05-02T02:51:23.825Z,39.18
2019-05-02T02:52:23.341Z,38.20
2019-05-02T02:53:29.982Z,39.60
2019-05-02T02:54:36.764Z,37.73
2019-05-02T02:55:38.768Z,39.33
2019-05-02T02:56:42.709Z,39.50
2019-05-02T02:57:46.417Z,36.90
2019-05-02T02:58:49.984Z,38.85
2019-05-02T02:59:59.634Z,37.75
2019-05-02T03:00:59.043Z,37.25
2019-05-02T03:02:10.196Z,37.67
2019-05-02T03:03:07.837Z,38.60
2019-05-02T03:04:12.247Z,38.20
2019-05-02T03:05:18.510Z,35.75
2019-05-02T03:06:21.327Z,38.53
2019-05-02T03:07:26.459Z,38.35
2019-05-02T03:08:30.134Z,37.20
2019-05-02T03:09:33.706Z,39.42
2019-05-02T03:10:39.891Z,39.18
2019-05-02T03:11:44.109Z,41.37
2019-05-02T03:12:52.228Z,39.30
2019-05-02T03:14:06.883Z,40.65
2019-05-02T03:15:10.407Z,38.08
2019-05-02T03:16:18.316Z,38.25
2019-05-02T03:17:26.588Z,40.28
2019-05-02T03:18:27.333Z,39.55
2019-05-02T03:19:30.931Z,39.00
2019-05-02T03:20:39.901Z,39.05
2019-05-02T03:21:41.338Z,38.78
2019-05-02T03:22:44.908Z,37.42
2019-05-02T03:23:48.572Z,39.27
2019-05-02T03:24:52.129Z,40.10
2019-05-02T03:25:55.689Z,39.75
2019-05-02T03:26:59.260Z,39.33
2019-05-02T03:28:03.023Z,40.00
2019-05-02T03:29:06.579Z,37.23
2019-05-02T03:30:29.171Z,38.78
2019-05-02T03:31:28.104Z,39.33
2019-05-02T03:32:31.571Z,38.28
2019-05-02T03:33:26.281Z,35.90
2019-05-02T03:34:44.980Z,39.40
2019-05-02T03:35:42.568Z,39.65
2019-05-02T03:36:40.623Z,36.58
2019-05-02T03:37:44.656Z,37.03
2019-05-02T03:38:49.480Z,38.17
2019-05-02T03:39:57.191Z,37.50
2019-05-02T03:40:58.254Z,37.93
2019-05-02T03:42:04.857Z,39.25
2019-05-02T03:43:07.491Z,40.03
2019-05-02T03:44:18.166Z,39.67
2019-05-02T03:45:16.705Z,38.53
2019-05-02T03:46:22.513Z,37.75
2019-05-02T03:47:26.194Z,38.28
2019-05-02T03:48:29.879Z,37.80
2019-05-02T03:49:33.479Z,37.85
2019-05-02T03:50:37.047Z,38.42
2019-05-02T03:51:40.688Z,37.08
2019-05-02T03:52:46.557Z,38.98
2019-05-02T03:53:49.732Z,37.20
2019-05-02T03:54:53.333Z,36.98
2019-05-02T03:55:57.359Z,36.83
2019-05-02T03:57:00.939Z,36.65
2019-05-02T03:58:12.826Z,35.25
2019-05-02T03:59:10.147Z,35.90
2019-05-02T04:00:21.247Z,36.03
2019-05-02T04:01:19.916Z,37.17
2019-05-02T04:02:24.217Z,37.38
2019-05-02T04:03:33.994Z,38.33
2019-05-02T04:04:34.648Z,38.05
2019-05-02T04:05:40.336Z,35.85
2019-05-02T04:06:43.607Z,36.40
2019-05-02T04:07:47.742Z,37.53
2019-05-02T04:08:59.142Z,35.38
2019-05-02T04:09:57.943Z,36.03
2019-05-02T04:11:16.438Z,36.50
2019-05-02T04:12:21.882Z,37.23
2019-05-02T04:13:30.121Z,35.55
2019-05-02T04:14:38.120Z,37.13
2019-05-02T04:15:37.522Z,36.75
2019-05-02T04:16:41.338Z,34.48
2019-05-02T04:17:45.271Z,38.88
2019-05-02T04:18:55.105Z,36.98
2019-05-02T04:19:54.406Z,37.20
2019-05-02T04:20:59.048Z,36.40
2019-05-02T04:22:08.405Z,36.63
2019-05-02T04:23:08.617Z,35.70
2019-05-02T04:24:15.760Z,38.65
2019-05-02T04:25:18.610Z,36.23
2019-05-02T04:26:22.450Z,38.80
2019-05-02T04:27:27.933Z,36.48
2019-05-02T04:28:31.927Z,37.35
2019-05-02T04:29:36.545Z,37.98
2019-05-02T04:30:45.218Z,37.28
2019-05-02T04:31:45.366Z,35.90
2019-05-02T04:32:49.722Z,37.95
2019-05-02T04:33:54.188Z,39.25
2019-05-02T04:34:58.096Z,36.30
2019-05-02T04:36:14.174Z,36.60
2019-05-02T04:37:07.077Z,38.73
2019-05-02T04:38:20.378Z,37.08
2019-05-02T04:39:20.721Z,38.02
2019-05-02T04:40:21.097Z,38.33
2019-05-02T04:41:28.966Z,36.60
2019-05-02T04:42:29.924Z,37.25
2019-05-02T04:43:33.486Z,36.83
2019-05-02T04:44:59.824Z,38.92
2019-05-02T04:45:53.160Z,36.90
2019-05-02T04:46:48.896Z,37.42
2019-05-02T04:47:59.010Z,38.33
2019-05-02T04:48:58.927Z,37.80
2019-05-02T04:50:07.631Z,39.48
2019-05-02T04:51:16.074Z,36.63
2019-05-02T04:52:16.869Z,37.98
2019-05-02T04:53:18.931Z,40.25
2019-05-02T04:54:28.285Z,39.83
2019-05-02T04:55:32.348Z,38.53
2019-05-02T04:56:33.100Z,40.90
2019-05-02T04:57:46.257Z,39.73
2019-05-02T04:58:41.870Z,42.20
2019-05-02T04:59:50.087Z,41.75
2019-05-02T05:00:58.130Z,40.20
2019-05-02T05:01:58.587Z,40.12
2019-05-02T05:03:01.238Z,40.48
2019-05-02T05:04:04.871Z,40.40
2019-05-02T05:05:08.573Z,40.28
2019-05-02T05:06:12.603Z,37.15
2019-05-02T05:07:17.771Z,40.60
2019-05-02T05:08:26.200Z,36.83
2019-05-02T05:09:27.900Z,38.73
2019-05-02T05:10:39.955Z,38.10
2019-05-02T05:11:38.140Z,37.90
2019-05-02T05:12:42.046Z,38.23
2019-05-02T05:13:47.759Z,37.30
2019-05-02T05:14:50.886Z,39.05
2019-05-02T05:15:54.453Z,38.55
2019-05-02T05:16:58.145Z,38.45
2019-05-02T05:18:04.597Z,37.90
2019-05-02T05:19:07.650Z,39.78
2019-05-02T05:20:15.537Z,39.25
2019-05-02T05:21:17.811Z,38.92
2019-05-02T05:22:21.883Z,36.90
2019-05-02T05:23:28.006Z,37.45
2019-05-02T05:24:49.840Z,37.13
2019-05-02T05:25:55.666Z,36.85
2019-05-02T05:27:00.288Z,37.42
2019-05-02T05:28:06.070Z,35.43
2019-05-02T05:29:09.071Z,36.95
2019-05-02T05:30:15.907Z,36.98
2019-05-02T05:31:23.964Z,36.98
2019-05-02T05:32:23.153Z,36.38
2019-05-02T05:33:28.336Z,35.85
2019-05-02T05:34:32.725Z,37.35
2019-05-02T05:35:38.422Z,37.55
2019-05-02T05:36:41.759Z,36.48
2019-05-02T05:37:49.111Z,36.53
2019-05-02T05:38:50.583Z,37.15
2019-05-02T05:39:54.186Z,36.30
2019-05-02T05:40:58.121Z,35.15
2019-05-02T05:42:01.837Z,34.92
2019-05-02T05:43:13.697Z,32.95
2019-05-02T05:44:10.611Z,33.60
2019-05-02T05:45:14.249Z,32.48
2019-05-02T05:46:18.023Z,32.90
2019-05-02T05:47:21.617Z,31.80
2019-05-02T05:48:27.239Z,32.38
2019-05-02T05:49:30.402Z,33.30
2019-05-02T05:50:39.790Z,31.12
2019-05-02T05:51:39.233Z,31.85
2019-05-02T05:52:42.810Z,31.27
2019-05-02T05:53:47.845Z,31.73
2019-05-02T05:54:51.601Z,32.25
2019-05-02T05:55:58.950Z,29.87
2019-05-02T05:57:00.887Z,31.57
2019-05-02T05:58:12.341Z,31.93
2019-05-02T05:59:09.745Z,33.33
2019-05-02T06:00:18.666Z,31.35
2019-05-02T06:01:20.407Z,29.75
2019-05-02T06:02:24.081Z,28.90
2019-05-02T06:03:27.874Z,29.77
2019-05-02T06:04:33.289Z,30.25
2019-05-02T06:05:38.542Z,31.42
2019-05-02T06:06:42.678Z,31.40
2019-05-02T06:07:47.444Z,30.48
2019-05-02T06:08:54.109Z,30.12
2019-05-02T06:09:56.283Z,29.72
2019-05-02T06:10:59.859Z,29.55
2019-05-02T06:12:03.473Z,32.33
2019-05-02T06:13:10.833Z,31.70
2019-05-02T06:14:12.268Z,30.35
2019-05-02T06:15:15.835Z,29.98
2019-05-02T06:16:19.401Z,30.40
2019-05-02T06:17:27.896Z,32.50
2019-05-02T06:18:28.508Z,32.40
2019-05-02T06:19:32.122Z,29.52
2019-05-02T06:20:35.694Z,27.60
2019-05-02T06:21:39.983Z,29.10
2019-05-02T06:22:44.513Z,29.02
2019-05-02T06:23:48.107Z,31.35
2019-05-02T06:24:52.185Z,30.05
2019-05-02T06:25:55.755Z,29.50
2019-05-02T06:26:59.327Z,28.45
2019-05-02T06:28:05.191Z,27.70
2019-05-02T06:29:12.918Z,26.33
2019-05-02T06:30:15.250Z,28.60
2019-05-02T06:31:18.812Z,27.95
2019-05-02T06:32:22.379Z,29.55
2019-05-02T06:33:30.431Z,28.62
2019-05-02T06:34:31.217Z,27.50
2019-05-02T06:35:34.790Z,28.73
2019-05-02T06:36:38.359Z,29.15
2019-05-02T06:37:45.361Z,29.10
2019-05-02T06:38:47.185Z,28.90
2019-05-02T06:39:50.811Z,28.25
2019-05-02T06:40:54.382Z,28.85
2019-05-02T06:41:58.703Z,27.87
2019-05-02T06:43:04.183Z,29.57
2019-05-02T06:44:10.252Z,28.20
2019-05-02T06:45:13.223Z,27.95
2019-05-02T06:46:21.875Z,28.90
2019-05-02T06:47:22.046Z,28.45
2019-05-02T06:48:25.613Z,29.25
2019-05-02T06:49:29.181Z,28.80
2019-05-02T06:50:38.656Z,27.98
2019-05-02T06:51:38.909Z,26.65
2019-05-02T06:52:42.661Z,26.87
2019-05-02T06:53:46.953Z,27.77
2019-05-02T06:54:54.086Z,26.95
2019-05-02T06:55:56.658Z,27.98
2019-05-02T06:57:00.301Z,25.50
2019-05-02T06:58:07.972Z,27.02
2019-05-02T06:59:13.035Z,27.20
2019-05-02T07:00:14.845Z,27.95
2019-05-02T07:01:21.120Z,26.80
2019-05-02T07:02:28.075Z,26.60
2019-05-02T07:03:28.884Z,26.62
2019-05-02T07:04:32.450Z,28.07
2019-05-02T07:05:36.049Z,27.62
2019-05-02T07:06:56.065Z,25.12
2019-05-02T07:07:45.074Z,26.02
2019-05-02T07:08:48.687Z,26.40
2019-05-02T07:09:52.516Z,26.27
2019-05-02T07:11:01.414Z,25.90
2019-05-02T07:12:01.825Z,26.30
2019-05-02T07:13:10.886Z,25.48
2019-05-02T07:14:13.425Z,25.40
2019-05-02T07:15:33.459Z,25.45
2019-05-02T07:16:39.998Z,25.80
2019-05-02T07:17:45.197Z,24.40
2019-05-02T07:18:50.401Z,27.13
2019-05-02T07:20:03.806Z,25.32
2019-05-02T07:21:12.203Z,27.55
2019-05-02T07:22:13.067Z,25.40
2019-05-02T07:23:18.396Z,27.10
2019-05-02T07:24:25.303Z,27.58
2019-05-02T07:25:27.563Z,26.30
2019-05-02T07:26:31.198Z,26.60
2019-05-02T07:27:35.628Z,25.32
2019-05-02T07:28:40.308Z,27.13
2019-05-02T07:29:44.471Z,27.05
2019-05-02T07:30:48.074Z,26.60
2019-05-02T07:31:53.516Z,27.73
2019-05-02T07:33:01.191Z,27.73
2019-05-02T07:34:02.090Z,28.00
2019-05-02T07:35:06.529Z,30.50
2019-05-02T07:36:10.097Z,27.82
2019-05-02T07:37:14.043Z,27.27
2019-05-02T07:38:20.128Z,28.05
2019-05-02T07:39:22.993Z,27.95
2019-05-02T07:40:26.563Z,27.98
2019-05-02T07:41:30.327Z,26.73
2019-05-02T07:42:36.832Z,29.95
2019-05-02T07:43:39.114Z,28.75
2019-05-02T07:44:42.720Z,28.30
2019-05-02T07:45:46.579Z,25.05
2019-05-02T07:46:52.121Z,27.20
2019-05-02T07:47:55.442Z,27.10
2019-05-02T07:48:59.055Z,26.75
2019-05-02T07:50:05.260Z,25.57
2019-05-02T07:51:07.833Z,25.55
2019-05-02T07:52:11.403Z,26.33
2019-05-02T07:53:15.005Z,26.77
2019-05-02T07:54:19.297Z,29.40
2019-05-02T07:55:23.842Z,28.15
2019-05-02T07:56:27.463Z,26.90
2019-05-02T07:57:32.419Z,26.10
2019-05-02T07:58:37.980Z,28.47
2019-05-02T07:59:41.215Z,26.70
2019-05-02T08:00:44.817Z,25.97
2019-05-02T08:01:49.697Z,27.05
2019-05-02T08:02:58.044Z,26.90
2019-05-02T08:04:04.264Z,26.60
2019-05-02T08:05:05.194Z,26.77
2019-05-02T08:06:08.808Z,28.05
2019-05-02T08:07:16.274Z,26.33
2019-05-02T08:08:17.582Z,26.70
2019-05-02T08:09:21.222Z,26.50
2019-05-02T08:10:24.834Z,26.37
2019-05-02T08:11:32.200Z,27.05
2019-05-02T08:12:34.162Z,27.02
2019-05-02T08:13:37.725Z,27.80
2019-05-02T08:14:41.294Z,27.55
2019-05-02T08:15:45.555Z,27.15
2019-05-02T08:16:50.114Z,27.58
2019-05-02T08:17:55.064Z,26.25
2019-05-02T08:19:01.426Z,28.50
2019-05-02T08:20:08.689Z,27.77
2019-05-02T08:21:12.394Z,26.95
2019-05-02T08:22:15.959Z,28.32
2019-05-02T08:23:20.529Z,29.25
2019-05-02T08:24:24.737Z,26.57
2019-05-02T08:25:28.311Z,25.17
2019-05-02T08:26:53.380Z,26.48
2019-05-02T08:27:56.719Z,26.70
2019-05-02T08:29:01.923Z,28.30
2019-05-02T08:30:09.008Z,27.02
2019-05-02T08:31:13.585Z,26.40
2019-05-02T08:32:17.842Z,25.68
2019-05-02T08:33:21.686Z,27.80
2019-05-02T08:34:34.254Z,26.65
2019-05-02T08:35:37.804Z,26.50
2019-05-02T08:36:41.386Z,28.30
2019-05-02T08:37:44.994Z,26.40
2019-05-02T08:38:48.898Z,27.20
2019-05-02T08:39:53.850Z,26.48
2019-05-02T08:40:57.414Z,29.05
2019-05-02T08:42:00.974Z,27.17
2019-05-02T08:43:09.431Z,27.45
2019-05-02T08:44:10.207Z,26.23
2019-05-02T08:45:14.205Z,27.25
2019-05-02T08:46:17.774Z,25.90
2019-05-02T08:47:23.744Z,24.82
2019-05-02T08:48:26.604Z,24.50
2019-05-02T08:49:30.172Z,26.00
2019-05-02T08:50:33.773Z,25.60
2019-05-02T08:51:37.306Z,26.25
2019-05-02T08:52:42.249Z,27.00
2019-05-02T08:53:46.182Z,26.02
2019-05-02T08:54:49.748Z,26.30
2019-05-02T08:55:53.334Z,28.00
2019-05-02T08:56:59.025Z,26.70
2019-05-02T08:58:06.743Z,27.13
2019-05-02T08:59:07.430Z,27.52
2019-05-02T09:00:12.814Z,23.45
2019-05-02T09:01:16.380Z,25.43
2019-05-02T09:02:21.077Z,24.32
2019-05-02T09:03:25.194Z,26.35
2019-05-02T09:04:30.405Z,25.20
2019-05-02T09:05:36.933Z,25.25
2019-05-02T09:06:39.232Z,26.52
2019-05-02T09:07:43.318Z,26.05
2019-05-02T09:08:51.523Z,25.15
2019-05-02T09:09:55.290Z,27.17
2019-05-02T09:10:57.505Z,26.27
2019-05-02T09:12:09.753Z,25.20
2019-05-02T09:13:06.355Z,26.27
2019-05-02T09:14:12.341Z,26.27
2019-05-02T09:15:15.578Z,24.67
2019-05-02T09:16:21.551Z,26.00
2019-05-02T09:17:35.459Z,25.52
2019-05-02T09:18:35.255Z,24.55
2019-05-02T09:19:35.021Z,25.30
2019-05-02T09:20:38.639Z,26.77
2019-05-02T09:21:42.943Z,25.15
2019-05-02T09:22:51.483Z,26.23
2019-05-02T09:23:51.897Z,26.60
2019-05-02T09:24:55.494Z,24.92
2019-05-02T09:25:59.067Z,24.60
2019-05-02T09:27:02.634Z,25.10
2019-05-02T09:28:06.366Z,25.02
2019-05-02T09:29:09.929Z,22.90
2019-05-02T09:30:17.047Z,25.45
2019-05-02T09:31:19.371Z,24.80
2019-05-02T09:32:26.243Z,24.40
2019-05-02T09:33:28.154Z,24.52
2019-05-02T09:34:31.958Z,23.95
2019-05-02T09:35:35.685Z,23.12
2019-05-02T09:36:39.207Z,23.65
2019-05-02T09:37:42.775Z,22.90
2019-05-02T09:38:48.762Z,24.85
2019-05-02T09:39:52.483Z,24.82
2019-05-02T09:40:56.381Z,24.32
2019-05-02T09:42:02.029Z,22.02
2019-05-02T09:43:05.414Z,22.50
2019-05-02T09:44:13.285Z,25.20
2019-05-02T09:45:16.307Z,23.15
2019-05-02T09:46:21.675Z,22.95
2019-05-02T09:47:27.283Z,24.63
2019-05-02T09:48:31.924Z,24.30
2019-05-02T09:49:35.585Z,23.90
2019-05-02T09:50:39.199Z,25.10
2019-05-02T09:51:45.392Z,24.75
2019-05-02T09:52:48.054Z,22.90
2019-05-02T09:53:52.369Z,23.07
2019-05-02T09:54:56.095Z,24.95
2019-05-02T09:56:01.993Z,23.05
2019-05-02T09:57:04.922Z,23.52
2019-05-02T09:58:10.341Z,21.77
2019-05-02T09:59:26.787Z,25.57
2019-05-02T10:00:36.543Z,24.65
2019-05-02T10:01:42.153Z,24.27
2019-05-02T10:02:45.791Z,23.90
2019-05-02T10:03:49.433Z,22.42
2019-05-02T10:04:54.887Z,24.52
2019-05-02T10:05:58.411Z,24.00
2019-05-02T10:07:02.588Z,24.70
2019-05-02T10:08:09.090Z,25.27
2019-05-02T10:09:12.152Z,25.12
2019-05-02T10:10:16.127Z,23.25
2019-05-02T10:11:22.499Z,25.50
2019-05-02T10:12:24.934Z,23.02
2019-05-02T10:13:28.534Z,24.75
2019-05-02T10:14:33.027Z,23.05
2019-05-02T10:15:36.880Z,25.62
2019-05-02T10:16:42.498Z,27.50
2019-05-02T10:17:46.890Z,25.20
2019-05-02T10:18:52.295Z,23.65
2019-05-02T10:19:57.296Z,25.45
2019-05-02T10:21:02.818Z,25.10
2019-05-02T10:22:06.345Z,25.75
2019-05-02T10:23:11.986Z,26.10
2019-05-02T10:24:15.242Z,25.23
2019-05-02T10:25:18.878Z,23.95
2019-05-02T10:26:24.590Z,25.95
2019-05-02T10:27:28.047Z,26.20
2019-05-02T10:28:31.845Z,26.33
2019-05-02T10:29:35.418Z,26.75
2019-05-02T10:30:39.118Z,26.05
2019-05-02T10:31:42.906Z,25.08
2019-05-02T10:32:47.181Z,25.40
2019-05-02T10:33:52.906Z,24.63
2019-05-02T10:34:56.909Z,25.43
2019-05-02T10:36:02.548Z,26.80
2019-05-02T10:37:05.903Z,25.48
2019-05-02T10:38:14.315Z,25.10
2019-05-02T10:39:15.839Z,26.57
2019-05-02T10:40:19.538Z,25.25
2019-05-02T10:41:23.386Z,28.20
2019-05-02T10:42:26.951Z,28.00
2019-05-02T10:43:30.539Z,28.15
2019-05-02T10:44:36.650Z,27.40
2019-05-02T10:45:42.536Z,25.50
2019-05-02T10:46:47.974Z,25.90
2019-05-02T10:47:52.702Z,24.12
2019-05-02T10:48:57.942Z,25.08
2019-05-02T10:50:03.181Z,25.23
2019-05-02T10:51:26.445Z,25.97
2019-05-02T10:52:32.001Z,24.60
2019-05-02T10:53:35.234Z,24.37
2019-05-02T10:54:38.798Z,24.82
2019-05-02T10:55:42.660Z,23.83
2019-05-02T10:56:46.203Z,23.57
2019-05-02T10:57:49.775Z,23.40
2019-05-02T10:58:53.372Z,24.43
2019-05-02T10:59:56.939Z,23.05
2019-05-02T11:01:02.277Z,23.15
2019-05-02T11:02:12.780Z,23.30
2019-05-02T11:03:26.089Z,23.62
2019-05-02T11:04:29.875Z,23.67
2019-05-02T11:05:37.282Z,22.40
2019-05-02T11:06:42.665Z,23.87
2019-05-02T11:07:45.502Z,22.73
2019-05-02T11:08:49.079Z,24.35
2019-05-02T11:09:52.674Z,23.65
2019-05-02T11:10:56.228Z,24.50
2019-05-02T11:12:02.438Z,23.62
2019-05-02T11:13:07.713Z,24.10
2019-05-02T11:14:15.871Z,24.12
2019-05-02T11:15:37.518Z,23.73
2019-05-02T11:16:45.171Z,24.30
2019-05-02T11:17:49.472Z,24.40
2019-05-02T11:18:57.216Z,24.43
2019-05-02T11:20:02.422Z,25.57
2019-05-02T11:21:08.303Z,25.37
2019-05-02T11:22:12.135Z,24.82
2019-05-02T11:23:15.820Z,23.62
2019-05-02T11:24:19.374Z,24.45
2019-05-02T11:25:22.951Z,25.80
2019-05-02T11:26:26.558Z,25.20
2019-05-02T11:27:30.096Z,22.98
2019-05-02T11:28:33.698Z,25.62
2019-05-02T11:29:37.276Z,25.00
2019-05-02T11:30:41.976Z,25.02
2019-05-02T11:31:45.663Z,25.45
2019-05-02T11:32:49.237Z,26.20
2019-05-02T11:33:52.972Z,25.97
2019-05-02T11:34:56.481Z,25.85
2019-05-02T11:36:02.387Z,26.73
2019-05-02T11:37:05.410Z,24.25
2019-05-02T11:38:09.289Z,27.00
2019-05-02T11:39:19.860Z,24.87
2019-05-02T11:40:18.321Z,26.27
2019-05-02T11:41:22.420Z,25.62
2019-05-02T11:42:27.364Z,24.92
2019-05-02T11:43:32.598Z,25.62
2019-05-02T11:44:36.225Z,24.52
2019-05-02T11:45:39.829Z,26.05
2019-05-02T11:46:46.884Z,26.15
2019-05-02T11:47:48.610Z,25.68
2019-05-02T11:48:56.464Z,25.48
2019-05-02T11:49:57.391Z,24.67
2019-05-02T11:51:02.600Z,24.95
2019-05-02T11:52:06.357Z,26.00
2019-05-02T11:53:24.879Z,25.62
2019-05-02T11:54:15.209Z,27.35
2019-05-02T11:55:23.702Z,26.82
2019-05-02T11:56:24.405Z,25.90
2019-05-02T11:57:30.423Z,25.27
2019-05-02T11:58:33.191Z,25.55
2019-05-02T11:59:36.763Z,26.33
2019-05-02T12:00:45.347Z,26.52
2019-05-02T12:01:57.629Z,25.12
2019-05-02T12:02:57.954Z,25.08
2019-05-02T12:03:59.314Z,24.95
2019-05-02T12:05:03.266Z,26.73
2019-05-02T12:06:12.234Z,26.27
2019-05-02T12:07:12.739Z,25.65
2019-05-02T12:08:16.365Z,25.90
2019-05-02T12:09:22.209Z,27.50
2019-05-02T12:10:28.017Z,26.33
2019-05-02T12:11:32.375Z,25.35
2019-05-02T12:12:36.450Z,25.25
2019-05-02T12:13:40.083Z,24.20
2019-05-02T12:14:43.644Z,25.55
2019-05-02T12:15:47.214Z,24.85
2019-05-02T12:16:52.631Z,25.75
2019-05-02T12:17:56.048Z,27.95
2019-05-02T12:19:09.556Z,23.20
2019-05-02T12:20:06.218Z,27.10
2019-05-02T12:21:11.819Z,26.80
2019-05-02T12:23:18.003Z,27.55
2019-05-02T12:23:22.472Z,27.45
2019-05-02T12:24:25.616Z,25.95
2019-05-02T12:25:29.250Z,25.88
2019-05-02T12:26:32.841Z,25.95
2019-05-02T12:27:36.413Z,28.17
2019-05-02T12:28:40.023Z,27.93
2019-05-02T12:29:43.605Z,25.52
2019-05-02T12:30:47.178Z,25.52
2019-05-02T12:31:54.752Z,25.60
2019-05-02T12:32:56.013Z,27.42
2019-05-02T12:34:02.499Z,26.60
2019-05-02T12:35:06.021Z,26.57
2019-05-02T12:36:11.979Z,26.73
2019-05-02T12:37:15.649Z,26.33
2019-05-02T12:38:19.265Z,25.35
2019-05-02T12:39:22.875Z,25.20
2019-05-02T12:40:26.518Z,26.65
2019-05-02T12:41:30.103Z,28.62
2019-05-02T12:42:34.055Z,27.35
2019-05-02T12:43:37.885Z,26.60
2019-05-02T12:44:42.641Z,26.87
2019-05-02T12:45:46.337Z,27.58
2019-05-02T12:46:51.622Z,27.52
2019-05-02T12:47:55.126Z,28.77
2019-05-02T12:48:58.695Z,27.30
2019-05-02T12:50:03.126Z,28.32
2019-05-02T12:51:06.949Z,28.52
2019-05-02T12:52:12.802Z,26.95
2019-05-02T12:53:15.867Z,27.62
2019-05-02T12:54:19.440Z,28.12
2019-05-02T12:55:23.014Z,28.32
2019-05-02T12:56:26.621Z,28.95
2019-05-02T12:57:32.009Z,27.90
2019-05-02T12:58:35.462Z,30.82
2019-05-02T12:59:39.039Z,30.20
2019-05-02T13:00:43.202Z,28.75
2019-05-02T13:01:46.888Z,29.48
2019-05-02T13:03:02.030Z,28.27
2019-05-02T13:04:07.581Z,29.15
2019-05-02T13:05:13.111Z,28.35
2019-05-02T13:06:16.503Z,30.77
2019-05-02T13:07:20.067Z,31.07
2019-05-02T13:08:25.297Z,29.42
2019-05-02T13:09:29.069Z,31.48
2019-05-02T13:10:49.293Z,30.55
2019-05-02T13:12:00.128Z,28.85
2019-05-02T13:13:05.644Z,29.50
2019-05-02T13:14:16.971Z,29.23
2019-05-02T13:15:15.292Z,29.77
2019-05-02T13:16:18.806Z,31.25
2019-05-02T13:17:22.753Z,30.30
2019-05-02T13:18:29.268Z,28.83
2019-05-02T13:19:40.593Z,28.80
2019-05-02T13:20:38.386Z,30.50
2019-05-02T13:21:57.972Z,29.57
2019-05-02T13:23:01.539Z,31.20
2019-05-02T13:24:13.265Z,29.80
2019-05-02T13:25:16.758Z,30.30
2019-05-02T13:26:24.966Z,28.55
2019-05-02T13:27:25.653Z,28.32
2019-05-02T13:28:29.226Z,30.52
2019-05-02T13:29:32.806Z,30.27
2019-05-02T13:30:46.567Z,28.93
2019-05-02T13:31:59.162Z,28.10
2019-05-02T13:33:04.378Z,28.40
2019-05-02T13:34:13.304Z,26.00
2019-05-02T13:35:26.503Z,25.82
2019-05-02T13:36:42.297Z,24.67
2019-05-02T13:37:47.245Z,27.03
2019-05-02T13:38:51.876Z,25.73
2019-05-02T13:39:57.238Z,27.97
2019-05-02T13:41:02.586Z,26.37
2019-05-02T13:42:06.329Z,26.43
2019-05-02T13:43:09.895Z,26.40
2019-05-02T13:44:15.259Z,27.33
2019-05-02T13:45:26.158Z,27.47
2019-05-02T13:46:29.802Z,25.60
2019-05-02T13:47:33.519Z,26.35
2019-05-02T13:48:37.125Z,25.60
2019-05-02T13:49:51.460Z,27.20
2019-05-02T13:50:46.048Z,26.60
2019-05-02T13:51:51.963Z,27.27
2019-05-02T13:52:57.902Z,26.00
2019-05-02T13:54:02.378Z,27.40
2019-05-02T13:55:09.179Z,25.83
2019-05-02T13:56:23.492Z,25.73
2019-05-02T13:57:27.125Z,28.47